Lery, Canada
Current Conditions -  °F | °C
As of 7:00 AM on Monday 26 Jan 2015 (Local Time) from CYUL Reporting Station
Few Clouds Few Clouds  
Wind Chill: -6°   Ceiling: Unl
Heat Index: -6°   Visibility: 15mi
Dew Point: -13°   Wind: 3mph
Humidity: 71%   Direction: 340°NNW
Pressure: 30.21"   Gusts: NA
Location:  45.33°N, 73.82°W
Report Text: CYUL 261200Z 34003KT 290V350 15SM FEW015 M21/M25 A3021 RMK SF1 SF TR SLP233
Loading
Personal Weather Stations






























Interactive Weather Map New forecast layout! Learn more

10-Day Weather Forecast

Advertisements
Track Severe Weather on mobile